Latest Weather Observations for Alva Beach

IDQ60801

Issued at 6:05 am EST Thursday 27 November 2014 (issued every 30 minutes, with the page automatically refreshed every 10 minutes)

About weather observations | Map of weather stations | Latest weather observations for QLD | Other Formats
Station Details ID: 033295 Name: ALVA BEACH Lat: -19.46 Lon: 147.48 Height: 7.5 m
Data from the previous 72 hours. | See also: Recent months at Alva Beach
Date/Time
EST
Temp
°C
App
Temp
°C
Dew
Point
Rel
Hum
%
Delta-T
°C
Wind Press
QNH
hPa
Press
MSL
hPa
Rain
since 9 am
mm
Dir
 
Spd
km/h
Gust
km/h
Spd
kts
Gust
kts
27/06:00am 24.9 25.3 18.1 66 4.3 E 13 19 7 10 1013.2 1013.2 0.0
27/05:30am 24.7 24.5 18.4 68 4.0 E 17 20 9 11 1013.0 1013.0 0.0
27/05:00am 24.8 24.1 18.3 67 4.1 E 19 24 10 13 1012.5 1012.5 0.0
27/04:30am 24.8 23.9 18.3 67 4.1 E 20 28 11 15 1012.2 1012.2 0.0
27/04:00am 24.9 23.5 17.9 65 4.4 E 22 30 12 16 1011.9 1011.9 0.0
27/03:30am 24.8 24.0 18.5 68 4.0 E 20 28 11 15 1011.8 1011.8 0.0
27/03:00am 24.9 24.3 18.8 69 3.9 E 20 30 11 16 1011.9 1011.9 0.0
27/02:30am 24.9 24.5 19.0 69 3.8 E 19 24 10 13 1011.8 1011.8 0.0
27/02:00am 24.9 23.8 18.6 68 4.0 E 22 28 12 15 1011.7 1011.7 0.0
27/01:30am 25.1 23.1 18.3 66 4.3 E 26 33 14 18 1011.7 1011.7 0.0
27/01:00am 25.3 24.6 19.4 70 3.8 E 22 32 12 17 1012.0 1012.0 0.0
27/12:30am 25.3 23.8 18.5 66 4.3 E 24 32 13 17 1012.2 1012.2 0.0
27/12:00am 25.3 24.6 19.4 70 3.8 E 22 32 12 17 1012.7 1012.7 0.0
 
Date/Time
EST
Temp
°C
App
Temp
°C
Dew
Point
Rel
Hum
%
Delta-T
°C
Wind Press
QNH
hPa
Press
MSL
hPa
Rain
since 9 am
mm
Dir
 
Spd
km/h
Gust
km/h
Spd
kts
Gust
kts
26/11:30pm 25.4 24.7 19.5 70 3.8 E 22 28 12 15 1013.0 1013.0 0.0
26/11:00pm 25.5 25.1 20.1 72 3.5 E 22 28 12 15 1013.3 1013.3 0.0
26/10:30pm 25.4 25.1 19.5 70 3.8 E 20 26 11 14 1013.1 1013.1 0.0
26/10:00pm 25.5 25.5 20.1 72 3.5 E 20 28 11 15 1013.1 1013.1 0.0
26/09:30pm 25.5 25.0 20.7 75 3.1 E 24 33 13 18 1012.9 1012.9 0.0
26/09:00pm 25.7 24.7 20.5 73 3.4 E 26 33 14 18 1012.7 1012.7 0.0
26/08:30pm 25.7 25.1 20.5 73 3.4 E 24 32 13 17 1012.8 1012.8 0.0
26/08:00pm 25.8 24.8 19.7 69 3.9 E 24 33 13 18 1012.5 1012.5 0.0
26/07:30pm 25.8 25.5 20.4 72 3.5 E 22 33 12 18 1012.6 1012.6 0.0
26/07:00pm 25.9 25.1 20.0 70 3.8 E 24 32 13 17 1012.3 1012.3 0.0
26/06:30pm 26.0 24.3 19.9 69 4.0 E 28 35 15 19 1012.0 1012.0 0.0
26/06:00pm 26.3 25.2 20.2 69 4.0 E 26 33 14 18 1011.9 1011.9 0.0
26/05:30pm 26.5 25.4 19.4 65 4.6 E 24 32 13 17 1011.8 1011.8 0.0
26/05:00pm 26.7 25.7 21.2 72 3.6 E 28 35 15 19 1011.5 1011.5 0.0
26/04:30pm 27.0 27.0 21.7 73 3.5 E 24 33 13 18 1011.1 1011.1 0.0
26/04:00pm 27.1 26.1 21.2 70 3.9 E 28 35 15 19 1010.8 1010.8 0.0
26/03:30pm 27.7 26.8 21.5 69 4.1 E 28 35 15 19 1010.9 1010.9 0.0
26/03:00pm 27.5 26.3 20.8 67 4.4 E 28 37 15 20 1011.1 1011.1 0.0
26/02:30pm 28.5 27.5 21.3 65 4.8 E 28 33 15 18 1011.1 1011.1 0.0
26/02:00pm 28.7 27.9 21.7 66 4.7 E 28 35 15 19 1011.2 1011.2 0.0
26/01:30pm 28.3 27.3 21.3 65 4.7 E 28 37 15 20 1011.4 1011.4 0.0
26/01:00pm 28.6 28.2 21.6 66 4.7 ENE 26 32 14 17 1011.8 1011.8 0.0
26/12:30pm 28.6 28.1 21.4 65 4.8 ENE 26 32 14 17 1012.1 1012.1 0.0
26/12:00pm 28.8 28.1 21.0 62 5.2 E 26 32 14 17 1012.4 1012.4 0.0
26/11:30am 28.8 27.6 20.8 62 5.3 ENE 28 35 15 19 1012.6 1012.6 0.0
26/11:00am 28.8 27.8 21.3 64 5.0 ENE 28 35 15 19 1012.6 1012.6 0.0
26/10:30am 28.8 28.6 21.3 64 5.0 E 24 33 13 18 1012.7 1012.7 0.0
26/10:00am 28.8 28.8 21.6 65 4.8 E 24 33 13 18 1013.0 1013.0 0.0
26/09:30am 28.5 28.3 21.3 65 4.8 E 24 32 13 17 1013.1 1013.1 0.0
26/09:00am 28.0 28.3 20.8 65 4.8 E 20 28 11 15 1013.2 1013.2 -
26/08:30am 27.5 27.6 21.1 68 4.2 E 22 28 12 15 1013.0 1013.0 -
26/08:00am 27.1 27.7 21.4 71 3.8 E 20 26 11 14 1012.8 1012.8 -
26/07:30am 26.6 27.4 21.4 73 3.5 E 19 24 10 13 1012.7 1012.7 -
26/07:00am 26.3 27.4 21.3 74 3.3 E 17 24 9 13 1012.4 1012.4 -
26/06:30am 25.8 26.7 20.8 74 3.3 E 17 24 9 13 1012.0 1012.0 -
26/06:00am 25.6 26.7 21.3 77 2.8 E 17 26 9 14 1011.8 1011.8 -
26/05:30am 25.6 25.9 20.8 75 3.2 E 20 30 11 16 1011.2 1011.2 -
26/05:00am 25.5 26.6 21.2 77 2.8 E 17 24 9 13 1011.0 1011.0 -
26/04:30am 25.6 26.2 21.1 76 3.0 E 19 24 10 13 1010.7 1010.7 -
26/04:00am 25.5 26.6 21.2 77 2.8 E 17 24 9 13 1010.6 1010.6 -
26/03:30am 25.5 26.2 21.2 77 2.8 E 19 28 10 15 1010.4 1010.4 -
26/03:00am 25.5 25.6 21.2 77 2.8 E 22 30 12 16 1010.4 1010.4 0.0
26/02:30am 25.5 25.8 20.7 75 3.1 E 20 28 11 15 1010.8 1010.8 -
26/02:00am 25.6 26.1 21.1 76 3.0 E 20 26 11 14 1010.9 1010.9 -
26/01:30am 25.7 26.2 20.9 75 3.2 E 19 24 10 13 1011.1 1011.1 -
26/01:00am 25.7 26.2 21.1 76 3.0 E 20 26 11 14 1011.3 1011.3 -
26/12:30am 25.8 26.5 21.5 77 2.9 E 20 28 11 15 1011.6 1011.6 -
26/12:00am 25.9 26.3 21.8 78 2.7 E 22 30 12 16 1012.0 1012.0 -
 
Date/Time
EST
Temp
°C
App
Temp
°C
Dew
Point
Rel
Hum
%
Delta-T
°C
Wind Press
QNH
hPa
Press
MSL
hPa
Rain
since 9 am
mm
Dir
 
Spd
km/h
Gust
km/h
Spd
kts
Gust
kts
25/11:30pm 25.9 26.1 21.3 76 3.0 E 22 28 12 15 1012.3 1012.3 -
25/11:00pm 26.0 26.0 21.7 77 2.9 E 24 32 13 17 1012.4 1012.4 -
25/10:30pm 26.1 25.6 21.5 76 3.1 E 26 33 14 18 1012.5 1012.5 -
25/10:00pm 26.2 25.1 21.8 77 2.9 E 30 37 16 20 1012.3 1012.3 -
25/09:30pm 26.1 25.6 22.2 79 2.6 E 28 35 15 19 1012.2 1012.2 -
25/09:00pm 26.2 25.7 21.4 75 3.2 E 26 35 14 19 1012.0 1012.0 0.0
25/08:30pm 26.1 26.4 21.5 76 3.1 E 22 32 12 17 1011.8 1011.8 -
25/08:00pm 26.1 26.7 21.3 75 3.2 E 20 28 11 15 1011.7 1011.7 -
25/07:30pm 26.3 26.8 21.1 73 3.4 E 20 26 11 14 1011.7 1011.7 -
25/07:00pm 26.2 25.8 21.0 73 3.4 ENE 24 30 13 16 1011.3 1011.3 -
25/06:30pm 26.4 25.5 20.7 71 3.7 ENE 26 32 14 17 1011.2 1011.2 -
25/06:00pm 26.5 25.2 20.6 70 3.9 ENE 28 32 15 17 1010.8 1010.8 -
25/05:30pm 26.7 26.0 21.0 71 3.8 ENE 26 30 14 16 1010.6 1010.6 -
25/05:00pm 27.0 26.2 20.1 66 4.5 ENE 24 32 13 17 1010.4 1010.4 -
25/04:30pm 27.4 26.0 19.7 63 5.0 ENE 26 30 14 16 1010.3 1010.3 -
25/04:00pm 27.4 25.9 19.5 62 5.1 ENE 26 32 14 17 1010.2 1010.2 -
25/03:30pm 27.9 26.2 19.7 61 5.3 NE 28 32 15 17 1010.4 1010.4 -
25/03:00pm 27.9 26.3 19.1 58 5.7 ENE 26 30 14 16 1010.7 1010.7 -
25/02:30pm 28.2 27.3 19.1 57 5.9 ENE 22 28 12 15 1011.2 1011.2 -
25/02:00pm 27.8 26.9 19.1 59 5.6 ENE 22 30 12 16 1011.5 1011.5 -
25/01:30pm 28.4 28.0 20.1 60 5.4 E 22 30 12 16 1011.6 1011.6 -
25/01:00pm 28.6 28.5 19.5 58 5.9 E 19 24 10 13 1011.9 1011.9 -
25/12:30pm 28.1 27.8 19.1 58 5.8 E 19 28 10 15 1012.2 1012.2 -
25/12:00pm 28.6 28.1 19.2 56 6.1 E 20 28 11 15 1012.4 1012.4 -
25/11:30am 27.8 27.8 19.8 61 5.2 E 19 24 10 13 1012.7 1012.7 0.2
25/11:00am 28.1 28.2 19.9 61 5.4 E 19 26 10 14 1012.9 1012.9 0.2
25/10:30am 27.9 28.3 19.9 61 5.2 E 17 22 9 12 1013.2 1013.2 0.2
25/10:00am 27.9 27.7 19.4 60 5.5 E 19 24 10 13 1013.3 1013.3 0.2
25/09:30am - - - - - E 22 30 12 16 1013.3 1013.3 0.0
25/09:00am 27.7 28.3 20.3 64 4.9 E 17 24 9 13 1013.3 1013.3 0.0
25/08:30am 27.6 28.3 20.4 65 4.7 E 17 22 9 12 1013.3 1013.3 0.0
25/08:00am 26.6 27.6 20.2 68 4.2 ENE 15 20 8 11 1013.2 1013.2 0.0
25/07:30am 26.7 26.7 19.8 66 4.5 ENE 19 24 10 13 1012.9 1012.9 0.0
25/07:00am 25.7 26.7 20.3 72 3.5 ENE 15 22 8 12 1012.7 1012.7 0.0
25/06:30am 25.3 25.7 19.9 72 3.5 ENE 17 22 9 12 1012.5 1012.5 0.0
25/06:00am 25.1 25.5 19.9 73 3.4 ENE 17 20 9 11 1012.3 1012.3 0.0
25/05:30am 25.0 25.1 20.0 74 3.2 ENE 19 24 10 13 1012.0 1012.0 0.0
25/05:00am 24.7 24.7 19.8 74 3.2 ENE 19 24 10 13 1011.7 1011.7 0.0
25/04:30am 25.0 24.9 20.0 74 3.2 ENE 20 26 11 14 1011.5 1011.5 0.0
25/04:00am 24.8 24.2 19.8 74 3.2 ENE 22 28 12 15 1011.3 1011.3 0.0
25/03:30am 25.0 24.8 19.8 73 3.4 ENE 20 26 11 14 1011.4 1011.4 0.0
25/03:00am 25.0 24.5 20.0 74 3.2 ENE 22 28 12 15 1011.3 1011.3 0.0
25/02:30am 25.1 24.7 20.1 74 3.2 ENE 22 26 12 14 1011.4 1011.4 0.0
25/02:00am 25.0 25.0 19.8 73 3.4 ENE 19 22 10 12 1012.0 1012.0 0.0
25/01:30am 25.1 25.5 19.9 73 3.4 ENE 17 24 9 13 1012.3 1012.3 0.0
25/01:00am 25.5 25.7 20.5 74 3.3 ENE 20 24 11 13 1012.5 1012.5 0.0
25/12:30am 25.5 25.5 20.1 72 3.5 ENE 20 24 11 13 1013.1 1013.1 0.0
25/12:00am 25.6 24.9 20.2 72 3.5 ENE 24 30 13 16 1013.4 1013.4 0.0
 
Date/Time
EST
Temp
°C
App
Temp
°C
Dew
Point
Rel
Hum
%
Delta-T
°C
Wind Press
QNH
hPa
Press
MSL
hPa
Rain
since 9 am
mm
Dir
 
Spd
km/h
Gust
km/h
Spd
kts
Gust
kts
24/11:30pm 25.5 25.5 20.1 72 3.5 ENE 20 28 11 15 1013.5 1013.5 0.0
24/11:00pm 25.5 25.1 20.1 72 3.5 ENE 22 30 12 16 1013.8 1013.8 0.0
24/10:30pm 25.6 24.9 20.2 72 3.5 ENE 24 30 13 16 1013.8 1013.8 0.0
24/10:00pm 25.6 24.9 20.2 72 3.5 ENE 24 28 13 15 1013.7 1013.7 0.0
24/09:30pm 25.7 24.6 20.3 72 3.5 ENE 26 30 14 16 1013.6 1013.6 0.0
24/09:00pm 25.8 24.8 20.4 72 3.5 ENE 26 30 14 16 1013.5 1013.5 0.0
24/08:30pm 25.9 24.5 20.5 72 3.5 ENE 28 32 15 17 1013.1 1013.1 0.0
24/08:00pm 25.8 24.1 20.6 73 3.4 ENE 30 35 16 19 1012.6 1012.6 0.0
24/07:30pm 25.9 24.2 20.5 72 3.5 ENE 30 35 16 19 1012.3 1012.3 0.0
24/07:00pm 25.9 24.4 20.2 71 3.7 ENE 28 33 15 18 1012.2 1012.2 0.0
24/06:30pm 26.3 25.2 21.1 73 3.4 ENE 28 32 15 17 1011.9 1011.9 0.0
24/06:00pm 26.4 25.4 21.2 73 3.4 ENE 28 32 15 17 1011.6 1011.6 0.0
24/05:30pm 26.8 25.7 21.1 71 3.8 ENE 28 32 15 17 1011.3 1011.3 0.0
24/05:00pm 27.2 26.2 20.5 67 4.4 ENE 26 30 14 16 1011.0 1011.0 0.0
24/04:30pm 27.2 26.4 20.0 64 4.7 ENE 24 30 13 16 1011.1 1011.1 0.0
24/04:00pm 27.6 26.8 20.9 67 4.4 ENE 26 32 14 17 1011.0 1011.0 0.0
24/03:30pm 28.1 27.7 20.9 65 4.8 ENE 24 30 13 16 1011.2 1011.2 0.0
24/03:00pm 27.9 26.5 19.7 61 5.3 ENE 26 32 14 17 1011.5 1011.5 0.0
24/02:30pm 28.3 27.1 20.1 61 5.4 ENE 26 30 14 16 1011.9 1011.9 0.0
24/02:00pm 28.3 26.6 19.8 60 5.5 ENE 28 32 15 17 1012.2 1012.2 0.0
24/01:30pm 28.2 26.9 19.1 57 5.9 ENE 24 32 13 17 1012.5 1012.5 0.0
24/01:00pm 28.4 27.9 20.7 63 5.1 ENE 24 33 13 18 1012.7 1012.7 0.0
24/12:30pm 28.5 28.5 21.0 64 5.0 E 22 30 12 16 1013.0 1013.0 0.0
24/12:00pm 28.7 29.1 21.0 63 5.1 E 20 26 11 14 1013.4 1013.4 0.0
24/11:30am 28.2 28.4 20.5 63 5.1 ENE 20 26 11 14 1013.8 1013.8 0.0
24/11:00am 28.6 29.1 20.9 63 5.1 E 19 26 10 14 1014.1 1014.1 0.0
24/10:30am 28.5 29.0 20.8 63 5.1 E 19 24 10 13 1014.3 1014.3 0.0
24/10:00am 28.0 28.5 21.1 66 4.6 E 20 28 11 15 1014.5 1014.5 0.0
24/09:30am 27.2 26.6 20.5 67 4.4 ENE 24 32 13 17 1014.5 1014.5 0.0
24/09:00am 28.3 28.8 20.8 63 5.0 E 19 26 10 14 1014.5 1014.5 0.0
24/08:30am 27.6 27.9 20.4 65 4.7 E 19 24 10 13 1014.5 1014.5 0.0
24/08:00am 27.3 28.3 21.1 69 4.1 E 17 24 9 13 1014.3 1014.3 0.0
24/07:30am 27.1 27.1 20.2 66 4.5 E 20 28 11 15 1014.0 1014.0 0.0
24/07:00am 26.1 25.8 20.4 71 3.7 ENE 22 26 12 14 1013.9 1013.9 0.0
24/06:30am 26.0 26.2 20.6 72 3.5 ENE 20 28 11 15 1013.5 1013.5 0.0

Other Formats:

Comma delimited format used in spreadsheet applications
http://www.bom.gov.au/fwo/IDQ60801/IDQ60801.95296.axf

JavaScript Object Notation format (JSON) in row-major order
http://www.bom.gov.au/fwo/IDQ60801/IDQ60801.95296.json